Time;durP1;ratioP1;P1;durP2;ratioP2;P2;SDS_P1;SDS_P2;PMS_P1;PMS_P2;Temp;Humidity;BMP_temperature;BMP_pressure;BME280_temperature;BME280_humidity;BME280_pressure;Samples;Min_cycle;Max_cycle;Signal;HPM_P1;HPM_P2
2022/05/22 00:02:12;;;;;;;7.67;4.23;;;13.80;99.90;;;;;;5031254;28;20465;-74
2022/05/22 00:04:39;;;;;;;8.00;3.73;;;13.70;99.90;;;;;;5030849;28;20473;-74
2022/05/22 00:07:07;;;;;;;6.40;3.70;;;13.70;99.90;;;;;;5031313;28;20449;-75
2022/05/22 00:09:35;;;;;;;5.10;3.97;;;13.70;99.90;;;;;;5030248;28;20519;-74
2022/05/22 00:12:02;;;;;;;6.53;3.97;;;13.70;99.90;;;;;;5031118;28;20493;-74
2022/05/22 00:14:29;;;;;;;6.37;3.93;;;13.80;99.90;;;;;;5030685;28;20485;-74
2022/05/22 00:16:55;;;;;;;6.17;3.60;;;13.80;99.90;;;;;;5030872;28;20946;-74
2022/05/22 00:19:24;;;;;;;6.90;3.80;;;13.80;99.90;;;;;;5031329;28;20445;-75
2022/05/22 00:21:51;;;;;;;7.63;3.70;;;13.90;99.90;;;;;;5031074;28;20975;-74
2022/05/22 00:24:21;;;;;;;6.73;4.10;;;13.80;99.90;;;;;;5030502;28;20511;-75
2022/05/22 00:26:48;;;;;;;7.10;3.80;;;13.80;99.90;;;;;;5031000;28;20964;-74
2022/05/22 00:29:16;;;;;;;9.27;4.10;;;13.80;99.90;;;;;;5031050;28;20934;-74
2022/05/22 00:31:43;;;;;;;5.37;3.60;;;13.80;99.90;;;;;;5030957;28;20469;-75
2022/05/22 00:34:10;;;;;;;11.63;4.23;;;13.80;99.90;;;;;;5031718;28;21175;-74
2022/05/22 00:36:37;;;;;;;9.97;3.80;;;13.90;99.90;;;;;;5034744;28;20460;-75
2022/05/22 00:39:04;;;;;;;10.50;4.20;;;13.90;99.90;;;;;;5034751;28;20452;-75
2022/05/22 00:41:34;;;;;;;4.80;4.30;;;14.00;99.90;;;;;;5034546;28;20490;-74
2022/05/22 00:44:02;;;;;;;4.20;3.80;;;14.00;99.90;;;;;;5033850;28;20420;-74
2022/05/22 00:46:30;;;;;;;5.53;4.00;;;14.10;99.90;;;;;;5033461;28;20861;-75
2022/05/22 00:49:01;;;;;;;7.77;3.97;;;14.10;99.90;;;;;;5034154;28;20448;-75
2022/05/22 00:51:33;;;;;;;7.30;4.30;;;14.10;99.90;;;;;;5034521;28;20502;-74
2022/05/22 00:54:05;;;;;;;6.27;4.13;;;14.10;99.90;;;;;;5033940;28;20505;-74
2022/05/22 00:56:37;;;;;;;13.70;4.77;;;14.00;99.90;;;;;;5034323;28;20482;-74
2022/05/22 00:59:06;;;;;;;11.57;4.60;;;14.00;99.90;;;;;;5034320;28;20464;-74
2022/05/22 01:01:34;;;;;;;7.80;4.53;;;14.00;99.90;;;;;;5033951;28;20469;-74
2022/05/22 01:04:02;;;;;;;6.83;4.37;;;13.90;99.90;;;;;;5033462;28;20849;-74
2022/05/22 01:06:29;;;;;;;7.17;4.50;;;13.90;99.90;;;;;;5034361;28;20503;-74
2022/05/22 01:08:55;;;;;;;8.03;4.43;;;13.80;99.90;;;;;;5033328;28;20454;-74
2022/05/22 01:11:26;;;;;;;4.23;3.83;;;13.90;99.90;;;;;;5034033;28;20453;-74
2022/05/22 01:13:59;;;;;;;7.53;4.23;;;13.90;99.90;;;;;;5033162;28;20906;-74
2022/05/22 01:16:26;;;;;;;9.77;4.20;;;13.90;99.90;;;;;;5037052;28;20456;-74
2022/05/22 01:18:55;;;;;;;8.63;4.07;;;13.80;99.90;;;;;;5053856;28;20502;-74
2022/05/22 01:21:25;;;;;;;9.70;4.53;;;13.80;99.90;;;;;;5053779;28;20444;-74
2022/05/22 01:23:54;;;;;;;7.63;4.40;;;13.70;99.90;;;;;;5053209;28;20495;-75
2022/05/22 01:26:22;;;;;;;11.13;5.00;;;13.70;99.90;;;;;;5053597;28;20949;-74
2022/05/22 01:28:49;;;;;;;12.93;5.37;;;13.60;99.90;;;;;;5053796;28;20452;-75
2022/05/22 01:31:16;;;;;;;10.07;4.90;;;13.60;99.90;;;;;;5053663;28;20445;-74
2022/05/22 01:33:42;;;;;;;9.60;5.13;;;13.50;99.90;;;;;;5052214;28;20510;-74
2022/05/22 01:36:10;;;;;;;13.03;4.60;;;13.50;99.90;;;;;;5053629;28;20448;-74
2022/05/22 01:38:37;;;;;;;6.77;4.70;;;13.40;99.90;;;;;;5053649;28;20448;-73
2022/05/22 01:41:05;;;;;;;11.97;5.40;;;13.30;99.90;;;;;;5053426;28;20456;-74
2022/05/22 01:43:32;;;;;;;8.60;5.10;;;13.20;99.90;;;;;;5052741;28;20448;-74
2022/05/22 01:45:59;;;;;;;5.67;4.77;;;13.20;99.90;;;;;;5051514;28;20945;-74
2022/05/22 01:48:26;;;;;;;11.03;4.90;;;13.10;99.90;;;;;;5048524;28;20457;-74
2022/05/22 01:50:53;;;;;;;8.13;4.50;;;13.10;99.90;;;;;;5033239;28;20449;-74
2022/05/22 01:53:21;;;;;;;14.37;5.00;;;13.00;99.90;;;;;;5032696;28;20547;-74
2022/05/22 01:55:50;;;;;;;9.60;4.40;;;13.00;99.90;;;;;;5033313;28;20445;-74
2022/05/22 01:58:18;;;;;;;8.53;4.47;;;13.00;99.90;;;;;;5033180;28;20456;-74
2022/05/22 02:00:45;;;;;;;5.47;4.73;;;12.90;99.90;;;;;;5033276;28;20453;-75
2022/05/22 02:03:12;;;;;;;11.10;4.70;;;12.80;99.90;;;;;;5032286;28;20473;-74
2022/05/22 02:05:39;;;;;;;8.63;5.13;;;12.70;99.90;;;;;;5032649;28;20472;-74
2022/05/22 02:08:22;;;;;;;10.50;5.00;;;12.60;99.90;;;;;;5032472;28;20455;-74
2022/05/22 02:10:51;;;;;;;11.77;5.00;;;12.60;99.90;;;;;;5033216;28;20882;-74
2022/05/22 02:13:21;;;;;;;5.90;4.70;;;12.60;99.90;;;;;;5031943;28;20564;-74
2022/05/22 02:15:48;;;;;;;13.43;5.03;;;12.60;99.90;;;;;;5032994;28;20882;-74
2022/05/22 02:18:15;;;;;;;6.17;4.60;;;12.60;99.90;;;;;;5032753;28;20453;-74
2022/05/22 02:20:42;;;;;;;5.90;4.90;;;12.70;99.90;;;;;;5032321;28;20449;-75
2022/05/22 02:23:09;;;;;;;6.80;4.83;;;12.60;99.90;;;;;;5032624;28;20465;-74
2022/05/22 02:25:39;;;;;;;7.83;5.00;;;12.70;99.90;;;;;;5032823;28;20454;-74
2022/05/22 02:28:08;;;;;;;5.13;4.63;;;12.70;99.90;;;;;;5032348;28;21014;-74
2022/05/22 02:30:39;;;;;;;9.57;6.33;;;12.70;99.90;;;;;;5032559;28;20453;-74
2022/05/22 02:33:06;;;;;;;9.00;5.13;;;12.70;99.90;;;;;;5032134;28;20480;-74
2022/05/22 02:35:33;;;;;;;9.90;5.00;;;12.80;99.90;;;;;;5030807;28;20564;-74
2022/05/22 02:38:00;;;;;;;12.93;6.10;;;12.80;99.90;;;;;;5032412;28;20960;-74
2022/05/22 02:40:29;;;;;;;12.57;5.63;;;12.70;99.90;;;;;;5032546;28;20504;-74
2022/05/22 02:42:56;;;;;;;13.07;5.83;;;12.60;99.90;;;;;;5032320;28;20481;-74
2022/05/22 02:45:24;;;;;;;9.37;5.17;;;12.60;99.90;;;;;;5030270;28;20504;-74
2022/05/22 02:47:52;;;;;;;6.07;4.97;;;12.60;99.90;;;;;;5032290;28;20529;-74
2022/05/22 02:50:23;;;;;;;5.87;4.63;;;12.60;99.90;;;;;;5012453;28;20571;-74
2022/05/22 02:52:50;;;;;;;7.30;4.77;;;12.60;99.90;;;;;;5012355;28;20520;-74
2022/05/22 02:55:18;;;;;;;8.60;4.53;;;12.60;99.90;;;;;;5013321;28;20518;-74
2022/05/22 02:57:45;;;;;;;9.17;5.50;;;12.70;99.90;;;;;;5031183;28;20450;-74
2022/05/22 03:00:15;;;;;;;4.97;4.40;;;12.70;99.90;;;;;;5031989;28;20946;-74
2022/05/22 03:02:42;;;;;;;6.93;4.50;;;12.70;99.90;;;;;;5032114;28;20473;-74
2022/05/22 03:05:11;;;;;;;12.40;4.63;;;12.70;99.90;;;;;;5031236;28;20441;-74
2022/05/22 03:07:38;;;;;;;10.30;4.60;;;12.70;99.90;;;;;;5031615;28;20499;-74
2022/05/22 03:10:06;;;;;;;9.03;4.60;;;12.60;99.90;;;;;;5031544;28;20449;-74
2022/05/22 03:12:33;;;;;;;10.80;4.67;;;12.60;99.90;;;;;;5031995;28;20516;-74
2022/05/22 03:15:00;;;;;;;8.57;5.20;;;12.50;99.90;;;;;;5030946;28;20493;-74
2022/05/22 03:17:27;;;;;;;6.17;4.63;;;12.50;99.90;;;;;;5031743;28;20446;-74
2022/05/22 03:19:54;;;;;;;8.17;4.77;;;12.50;99.90;;;;;;5031700;28;20519;-74
2022/05/22 03:22:22;;;;;;;7.20;4.47;;;12.50;99.90;;;;;;5031485;28;20488;-74
2022/05/22 03:24:49;;;;;;;11.00;5.33;;;12.40;99.90;;;;;;5031245;28;20511;-73
2022/05/22 03:27:18;;;;;;;7.33;4.30;;;12.50;99.90;;;;;;5031904;28;20460;-74
2022/05/22 03:29:46;;;;;;;8.17;4.63;;;12.40;99.90;;;;;;5031708;28;20511;-75
2022/05/22 03:32:14;;;;;;;8.23;5.00;;;12.40;99.90;;;;;;5031536;28;20465;-74
2022/05/22 03:34:41;;;;;;;8.10;5.03;;;12.40;99.90;;;;;;5030805;28;21005;-74
2022/05/22 03:37:08;;;;;;;7.67;4.87;;;12.30;99.90;;;;;;5031407;28;20939;-74
2022/05/22 03:39:37;;;;;;;9.60;5.07;;;12.30;99.90;;;;;;5031555;28;20457;-74
2022/05/22 03:42:04;;;;;;;9.20;4.70;;;12.30;99.90;;;;;;5031539;28;20894;-74
2022/05/22 03:44:31;;;;;;;7.10;4.97;;;12.20;99.90;;;;;;5031026;28;20450;-74
2022/05/22 03:46:57;;;;;;;5.53;4.23;;;12.20;99.90;;;;;;5029845;28;20445;-74
2022/05/22 03:49:24;;;;;;;5.43;4.50;;;12.20;99.90;;;;;;5031569;28;20450;-74
2022/05/22 03:51:51;;;;;;;13.70;4.63;;;12.20;99.90;;;;;;5031347;28;20473;-74
2022/05/22 03:54:17;;;;;;;9.17;5.77;;;12.10;99.90;;;;;;5030678;28;20531;-74
2022/05/22 03:56:46;;;;;;;9.20;4.70;;;12.10;99.90;;;;;;5031381;28;20503;-75
2022/05/22 03:59:12;;;;;;;9.53;4.30;;;12.10;99.90;;;;;;5031345;28;20513;-74
2022/05/22 04:01:39;;;;;;;8.97;4.83;;;12.10;99.90;;;;;;5031317;28;21157;-74
2022/05/22 04:04:06;;;;;;;6.97;4.47;;;12.10;99.90;;;;;;5030929;28;20449;-74
2022/05/22 04:06:32;;;;;;;11.67;5.83;;;12.10;99.90;;;;;;5031332;28;20456;-74
2022/05/22 04:08:59;;;;;;;8.87;5.00;;;12.10;99.90;;;;;;5033112;28;20854;-74
2022/05/22 04:11:25;;;;;;;9.67;4.77;;;12.10;99.90;;;;;;5035057;28;20842;-73
2022/05/22 04:13:54;;;;;;;7.43;4.80;;;12.10;99.90;;;;;;5034457;28;20499;-74
2022/05/22 04:16:20;;;;;;;5.10;4.37;;;12.10;99.90;;;;;;5037265;28;20441;-74
2022/05/22 04:18:47;;;;;;;12.03;5.33;;;12.10;99.90;;;;;;5055208;28;20452;-74
2022/05/22 04:21:14;;;;;;;11.33;5.20;;;12.20;99.90;;;;;;5054796;28;20456;-75
2022/05/22 04:26:30;;;;;;;14.27;5.23;;;12.20;99.90;;;;;;5054639;28;20420;-74
2022/05/22 04:28:58;;;;;;;12.30;6.57;;;12.20;99.90;;;;;;5055104;28;20535;-74
2022/05/22 04:31:25;;;;;;;12.40;5.67;;;12.20;99.90;;;;;;5054714;28;20476;-74
2022/05/22 04:33:52;;;;;;;8.73;6.60;;;12.20;99.90;;;;;;5053478;28;20505;-74
2022/05/22 04:36:18;;;;;;;11.90;6.27;;;12.30;99.90;;;;;;5054704;28;20445;-74
2022/05/22 04:38:45;;;;;;;11.67;6.50;;;12.30;99.90;;;;;;5054542;28;20452;-74
2022/05/22 04:41:11;;;;;;;13.87;6.53;;;12.40;99.90;;;;;;5054394;28;20445;-74
2022/05/22 04:43:38;;;;;;;9.80;6.80;;;12.40;99.90;;;;;;5053926;28;20852;-74
2022/05/22 04:46:08;;;;;;;9.00;6.27;;;12.40;99.90;;;;;;5052841;28;21003;-73
2022/05/22 04:48:35;;;;;;;9.70;5.83;;;12.40;99.90;;;;;;5048479;28;21037;-75
2022/05/22 04:51:02;;;;;;;10.33;6.10;;;12.50;99.90;;;;;;5034164;28;20458;-74
2022/05/22 04:53:29;;;;;;;9.53;6.63;;;12.50;99.90;;;;;;5033690;28;20846;-74
2022/05/22 04:55:57;;;;;;;10.77;6.10;;;12.50;99.90;;;;;;5034384;28;20538;-74
2022/05/22 04:58:23;;;;;;;6.83;5.80;;;12.50;99.90;;;;;;5034154;28;20934;-74
2022/05/22 05:00:50;;;;;;;9.50;6.07;;;12.50;99.90;;;;;;5034149;28;20507;-74
2022/05/22 05:03:19;;;;;;;8.80;6.27;;;12.60;99.90;;;;;;5033574;28;20477;-74
2022/05/22 05:05:53;;;;;;;10.60;6.60;;;12.60;99.90;;;;;;5034014;28;20794;-76
2022/05/22 05:08:20;;;;;;;14.07;7.07;;;12.60;99.90;;;;;;5033620;28;20550;-74
2022/05/22 05:10:47;;;;;;;12.13;7.50;;;12.70;99.90;;;;;;5034072;28;20511;-74
2022/05/22 05:13:13;;;;;;;10.50;6.63;;;12.80;99.90;;;;;;5033226;28;20481;-74
2022/05/22 05:15:40;;;;;;;8.27;6.20;;;12.90;99.90;;;;;;5033906;28;20492;-74
2022/05/22 05:18:07;;;;;;;17.07;7.00;;;13.00;99.90;;;;;;5033540;28;20449;-75
2022/05/22 05:20:36;;;;;;;11.77;6.80;;;13.00;99.90;;;;;;5033020;28;20453;-74
2022/05/22 05:23:03;;;;;;;7.60;6.73;;;13.10;99.90;;;;;;5031917;28;20550;-74
2022/05/22 05:25:30;;;;;;;7.20;6.30;;;13.30;99.90;;;;;;5033295;28;20449;-72
2022/05/22 05:27:57;;;;;;;9.40;6.03;;;13.40;99.90;;;;;;5033807;28;20453;-72
2022/05/22 05:30:23;;;;;;;10.47;6.50;;;13.60;99.90;;;;;;5033920;28;20445;-72
2022/05/22 05:32:55;;;;;;;8.33;6.67;;;13.80;99.90;;;;;;5033332;28;20989;-73
2022/05/22 05:35:22;;;;;;;12.60;6.10;;;13.90;99.90;;;;;;5032890;28;20485;-73
2022/05/22 05:37:51;;;;;;;9.80;7.03;;;13.90;99.90;;;;;;5033378;28;20453;-74
2022/05/22 05:40:17;;;;;;;9.80;6.20;;;13.80;99.90;;;;;;5033258;28;20445;-73
2022/05/22 05:42:44;;;;;;;8.73;6.60;;;13.70;99.90;;;;;;5033557;28;20469;-73
2022/05/22 05:45:13;;;;;;;11.67;6.93;;;13.70;99.90;;;;;;5031355;28;20445;-73
2022/05/22 05:47:39;;;;;;;10.67;6.80;;;13.70;99.90;;;;;;5033604;28;20525;-74
2022/05/22 05:50:07;;;;;;;7.07;6.13;;;13.70;99.90;;;;;;5033234;28;20453;-74
2022/05/22 05:52:34;;;;;;;12.20;6.67;;;13.70;99.90;;;;;;5033202;28;20469;-73
2022/05/22 05:55:02;;;;;;;13.50;7.23;;;13.80;99.90;;;;;;5032446;28;20578;-73
2022/05/22 05:57:29;;;;;;;13.67;6.67;;;13.90;99.90;;;;;;5032796;28;21015;-73
2022/05/22 05:59:56;;;;;;;10.10;7.00;;;14.10;99.90;;;;;;5033287;28;20445;-73
2022/05/22 06:02:23;;;;;;;13.53;6.80;;;14.20;99.90;;;;;;5033035;28;20816;-74
2022/05/22 06:04:49;;;;;;;10.37;6.57;;;14.30;99.90;;;;;;5032481;28;20934;-73
2022/05/22 06:07:16;;;;;;;14.37;7.17;;;14.30;99.90;;;;;;5032282;28;20453;-73
2022/05/22 06:09:43;;;;;;;9.53;6.57;;;14.30;99.90;;;;;;5032992;28;20484;-72
2022/05/22 06:12:12;;;;;;;9.57;6.47;;;14.30;99.90;;;;;;5031708;28;20477;-73
2022/05/22 06:14:38;;;;;;;11.53;6.70;;;14.40;99.90;;;;;;5032280;28;20457;-73
2022/05/22 06:17:06;;;;;;;9.83;6.30;;;14.40;99.90;;;;;;5041054;28;20510;-73
2022/05/22 06:22:17;;;;;;;9.43;6.60;;;14.60;99.90;;;;;;5052687;28;20567;-73
2022/05/22 06:24:44;;;;;;;9.23;6.60;;;14.80;99.90;;;;;;5052017;28;20803;-73
2022/05/22 06:27:12;;;;;;;13.60;7.03;;;15.00;99.90;;;;;;5052687;28;20452;-72
2022/05/22 06:29:39;;;;;;;10.70;6.87;;;15.00;99.90;;;;;;5052501;28;20463;-73
2022/05/22 06:32:06;;;;;;;7.00;6.10;;;15.10;99.90;;;;;;5052287;28;20543;-72
2022/05/22 06:34:34;;;;;;;8.17;6.60;;;15.10;99.90;;;;;;5050777;28;20873;-73
2022/05/22 06:37:03;;;;;;;9.30;6.67;;;15.30;99.90;;;;;;5052483;28;20505;-72
2022/05/22 06:42:17;;;;;;;11.00;6.67;;;16.00;99.90;;;;;;5052354;28;20560;-73
2022/05/22 06:44:44;;;;;;;9.63;6.07;;;16.40;99.90;;;;;;5051663;28;20522;-73
2022/05/22 06:47:11;;;;;;;9.73;6.03;;;16.70;99.90;;;;;;5052313;28;20502;-72
2022/05/22 06:49:37;;;;;;;9.70;5.60;;;17.00;99.90;;;;;;5037527;28;20453;-73
2022/05/22 06:52:05;;;;;;;11.83;5.80;;;17.20;99.90;;;;;;5032135;28;20447;-73
2022/05/22 06:54:31;;;;;;;9.83;6.50;;;17.40;99.90;;;;;;5029825;28;20420;-72
2022/05/22 06:56:58;;;;;;;12.30;6.30;;;17.50;99.90;;;;;;5031737;28;20441;-73
2022/05/22 06:59:26;;;;;;;14.43;5.90;;;17.60;99.90;;;;;;5031942;28;20805;-73
2022/05/22 07:01:53;;;;;;;11.57;6.73;;;17.60;99.90;;;;;;5031831;28;20478;-73
2022/05/22 07:04:21;;;;;;;9.47;6.50;;;17.80;99.90;;;;;;5031430;28;20474;-72
2022/05/22 07:06:48;;;;;;;8.20;5.50;;;17.90;99.90;;;;;;5031744;28;20798;-72
2022/05/22 07:09:14;;;;;;;13.60;5.90;;;18.10;99.90;;;;;;5031644;28;20453;-73
2022/05/22 07:11:41;;;;;;;10.13;6.07;;;18.20;99.90;;;;;;5031737;28;20456;-73
2022/05/22 07:14:09;;;;;;;9.60;6.10;;;18.10;99.90;;;;;;5031519;28;20416;-73
2022/05/22 07:16:37;;;;;;;13.33;6.50;;;18.20;99.90;;;;;;5031765;28;20514;-73
2022/05/22 07:19:04;;;;;;;14.47;5.90;;;18.50;99.90;;;;;;5031697;28;20420;-73
2022/05/22 07:21:31;;;;;;;8.57;5.43;;;18.70;99.90;;;;;;5031599;28;20473;-73
2022/05/22 07:23:59;;;;;;;8.80;5.27;;;18.70;99.90;;;;;;5031329;28;20453;-73
2022/05/22 07:26:26;;;;;;;9.67;6.13;;;18.70;99.90;;;;;;5031725;28;20477;-73
2022/05/22 07:28:53;;;;;;;6.53;4.93;;;18.90;99.90;;;;;;5031777;28;20445;-72
2022/05/22 07:31:22;;;;;;;7.20;5.57;;;19.00;99.90;;;;;;5031439;28;20449;-72
2022/05/22 07:33:50;;;;;;;9.23;5.40;;;19.10;99.90;;;;;;5031049;28;20507;-73
2022/05/22 07:36:18;;;;;;;11.47;5.57;;;19.20;99.90;;;;;;5031237;28;20680;-73
2022/05/22 07:38:45;;;;;;;10.10;5.53;;;19.20;99.90;;;;;;5031757;28;20508;-73
2022/05/22 07:41:12;;;;;;;12.53;5.37;;;19.40;99.90;;;;;;5031362;28;20423;-72
2022/05/22 07:43:40;;;;;;;11.30;5.20;;;19.60;99.90;;;;;;5035163;28;20532;-73
2022/05/22 07:46:07;;;;;;;8.20;5.47;;;19.90;99.90;;;;;;5038044;28;20623;-73
2022/05/22 07:48:33;;;;;;;9.30;4.63;;;20.10;99.90;;;;;;5038054;28;20449;-73
2022/05/22 07:51:03;;;;;;;9.50;5.30;;;20.30;99.90;;;;;;5037971;28;20453;-72
2022/05/22 07:53:31;;;;;;;12.60;5.00;;;20.40;99.90;;;;;;5036029;28;20503;-72
2022/05/22 07:55:58;;;;;;;6.60;5.50;;;20.50;99.90;;;;;;5037844;28;20481;-73
2022/05/22 07:58:26;;;;;;;9.40;5.30;;;20.70;99.90;;;;;;5037910;28;20499;-72
2022/05/22 08:00:54;;;;;;;6.23;4.97;;;20.90;99.90;;;;;;5037762;28;20453;-72
2022/05/22 08:03:21;;;;;;;8.20;5.10;;;21.10;99.90;;;;;;5037438;28;20443;-72
2022/05/22 08:05:48;;;;;;;8.10;4.87;;;21.30;99.90;;;;;;5038005;28;20445;-73
2022/05/22 08:08:17;;;;;;;8.67;4.70;;;21.40;99.90;;;;;;5037094;28;20938;-73
2022/05/22 08:10:44;;;;;;;10.70;5.60;;;21.10;99.90;;;;;;5037902;28;20826;-72
2022/05/22 08:13:12;;;;;;;9.27;5.10;;;21.10;99.90;;;;;;5036947;28;20477;-73
2022/05/22 08:15:40;;;;;;;9.97;4.93;;;20.90;99.90;;;;;;5037198;28;21008;-73
2022/05/22 08:18:08;;;;;;;14.53;4.93;;;20.80;99.90;;;;;;5054686;28;20452;-72
2022/05/22 08:20:36;;;;;;;11.33;6.10;;;20.70;99.90;;;;;;5057881;28;20486;-73
2022/05/22 08:23:06;;;;;;;14.87;4.90;;;20.60;99.90;;;;;;5057460;28;20521;-73
2022/05/22 08:25:34;;;;;;;38.17;16.70;;;20.40;99.90;;;;;;5057826;28;20466;-73
2022/05/22 08:28:01;;;;;;;24.63;10.00;;;20.60;99.90;;;;;;5057595;28;20452;-73
2022/05/22 08:30:29;;;;;;;11.23;5.70;;;20.80;99.90;;;;;;5057657;28;20456;-72
2022/05/22 08:32:56;;;;;;;6.93;4.60;;;21.10;99.90;;;;;;5057669;28;20472;-73
2022/05/22 08:35:26;;;;;;;4.87;4.30;;;21.20;99.90;;;;;;5056405;28;20513;-73
2022/05/22 08:37:53;;;;;;;7.20;4.10;;;21.20;99.90;;;;;;5057472;28;20447;-72
2022/05/22 08:40:23;;;;;;;10.53;4.87;;;21.40;99.90;;;;;;5057931;28;20448;-73
2022/05/22 08:42:56;;;;;;;7.73;4.87;;;21.50;99.90;;;;;;5057460;28;20508;-73
2022/05/22 08:45:27;;;;;;;8.83;4.93;;;21.50;99.90;;;;;;5057054;28;20502;-73
2022/05/22 08:48:02;;;;;;;16.13;5.03;;;21.50;99.90;;;;;;5057184;28;21014;-72
2022/05/22 08:50:31;;;;;;;14.33;4.80;;;21.60;99.90;;;;;;5037606;28;20522;-73
2022/05/22 08:53:04;;;;;;;11.80;5.80;;;21.80;99.90;;;;;;5035790;28;20484;-70
2022/05/22 09:01:12;;;;;;;12.93;5.40;;;22.00;99.90;;;;;;5034157;28;20472;-73
2022/05/22 09:03:47;;;;;;;7.63;4.63;;;21.80;99.90;;;;;;5033842;28;20545;-73
2022/05/22 09:06:18;;;;;;;16.73;6.77;;;21.80;99.90;;;;;;5034129;28;20449;-73
2022/05/22 09:08:48;;;;;;;14.77;8.33;;;22.00;99.90;;;;;;5033725;28;20489;-73
2022/05/22 09:11:24;;;;;;;11.60;4.77;;;22.10;99.90;;;;;;5033780;28;20458;-73
2022/05/22 09:13:59;;;;;;;13.10;4.77;;;22.30;99.90;;;;;;5033403;28;20444;-72
2022/05/22 09:16:29;;;;;;;9.13;5.00;;;22.70;99.90;;;;;;5034084;28;20476;-73
2022/05/22 09:19:03;;;;;;;10.50;4.83;;;22.80;99.90;;;;;;5033871;28;20449;-73
2022/05/22 09:21:33;;;;;;;8.20;4.90;;;22.90;99.90;;;;;;5033776;28;20477;-72
2022/05/22 09:24:03;;;;;;;10.47;4.50;;;22.90;99.90;;;;;;5033447;28;20559;-73
2022/05/22 09:26:46;;;;;;;13.07;5.13;;;23.00;99.90;;;;;;5033980;28;20445;-73
2022/05/22 09:29:32;;;;;;;8.83;5.00;;;23.20;99.90;;;;;;5033616;28;20853;-73
2022/05/22 09:32:10;;;;;;;8.87;5.20;;;23.10;99.90;;;;;;5033406;28;20481;-73
2022/05/22 09:34:45;;;;;;;8.30;4.20;;;22.80;99.90;;;;;;5032665;28;20449;-73
2022/05/22 09:37:30;;;;;;;11.50;4.10;;;22.60;99.90;;;;;;5033894;28;20888;-73
2022/05/22 09:40:09;;;;;;;9.70;4.67;;;22.70;99.90;;;;;;5033793;28;20488;-73
2022/05/22 09:42:49;;;;;;;10.10;4.50;;;22.80;99.90;;;;;;5033482;28;20473;-73
2022/05/22 09:45:28;;;;;;;9.00;3.97;;;22.80;99.90;;;;;;5032868;28;20475;-73
2022/05/22 09:48:26;;;;;;;4.90;3.47;;;23.20;99.90;;;;;;5033315;28;20456;-73
2022/05/22 09:51:03;;;;;;;6.33;3.53;;;23.50;99.90;;;;;;5033316;28;20453;-73
2022/05/22 09:53:45;;;;;;;8.17;3.70;;;23.70;99.90;;;;;;5031209;28;21451;-72
2022/05/22 09:56:24;;;;;;;9.13;3.80;;;24.00;99.90;;;;;;5033566;28;20926;-72
2022/05/22 09:59:11;;;;;;;4.30;3.40;;;24.10;99.90;;;;;;5033030;28;20507;-73
2022/05/22 10:01:43;;;;;;;9.53;4.07;;;23.90;99.90;;;;;;5033088;28;20906;-73
2022/05/22 10:04:26;;;;;;;10.53;3.57;;;24.10;99.90;;;;;;5032559;28;20446;-73
2022/05/22 10:06:59;;;;;;;5.83;3.23;;;24.20;99.90;;;;;;5032476;28;20449;-72
2022/05/22 10:09:37;;;;;;;9.13;2.97;;;24.70;99.90;;;;;;5033026;28;20507;-72
2022/05/22 10:12:18;;;;;;;6.53;3.60;;;25.20;99.90;;;;;;5032935;28;20484;-73
2022/05/22 10:14:55;;;;;;;10.10;3.07;;;25.50;99.90;;;;;;5032187;28;20685;-73
2022/05/22 10:17:37;;;;;;;7.90;3.33;;;25.30;99.90;;;;;;5043024;28;20507;-73
2022/05/22 10:20:10;;;;;;;9.83;3.30;;;25.40;99.90;;;;;;5052892;28;20510;-73
2022/05/22 10:22:52;;;;;;;8.20;3.37;;;25.10;99.90;;;;;;5052763;28;20525;-73
2022/05/22 10:25:34;;;;;;;10.00;3.90;;;25.00;99.90;;;;;;5052006;28;20448;-73
2022/05/22 10:28:05;;;;;;;5.03;2.57;;;24.50;99.90;;;;;;5052375;28;20819;-73
2022/05/22 10:30:39;;;;;;;7.60;3.17;;;24.50;99.90;;;;;;5052321;28;20510;-73
2022/05/22 10:33:14;;;;;;;7.27;3.17;;;24.50;99.90;;;;;;5052270;28;20476;-72
2022/05/22 10:35:46;;;;;;;11.40;3.90;;;24.50;99.90;;;;;;5052291;28;20811;-73
2022/05/22 10:38:17;;;;;;;11.10;3.00;;;24.60;99.90;;;;;;5052572;28;20456;-73
2022/05/22 10:43:34;;;;;;;5.17;2.87;;;25.30;99.90;;;;;;5051715;28;20436;-73
2022/05/22 10:46:01;;;;;;;4.90;2.60;;;25.90;99.90;;;;;;5051778;28;20913;-72
2022/05/22 10:48:31;;;;;;;9.50;2.50;;;26.00;99.90;;;;;;5047306;28;20452;-73
2022/05/22 10:51:03;;;;;;;7.40;3.37;;;25.90;99.90;;;;;;5032329;28;20456;-73
2022/05/22 10:53:34;;;;;;;3.20;2.60;;;25.60;99.90;;;;;;5030010;28;20550;-73
2022/05/22 10:56:03;;;;;;;9.27;3.37;;;24.80;99.90;;;;;;5031292;28;20815;-73
2022/05/22 10:58:32;;;;;;;8.83;3.30;;;24.20;99.90;;;;;;5023233;28;20500;-73
2022/05/22 11:01:01;;;;;;;11.53;3.30;;;23.60;99.90;;;;;;5011880;28;20516;-73
2022/05/22 11:03:31;;;;;;;10.40;3.60;;;23.40;99.90;;;;;;5024262;28;20470;-73
2022/05/22 11:06:01;;;;;;;13.10;3.17;;;23.40;99.90;;;;;;5032220;28;20511;-72
2022/05/22 11:08:30;;;;;;;6.90;3.13;;;23.60;99.90;;;;;;5025666;28;20462;-73
2022/05/22 11:11:01;;;;;;;8.80;3.33;;;23.80;99.90;;;;;;5015195;28;20462;-73
2022/05/22 11:13:28;;;;;;;3.27;2.63;;;24.30;99.90;;;;;;5012389;28;20940;-73
2022/05/22 11:16:36;;;;;;;7.05;2.60;;;24.80;99.90;;;;;;5087116;28;20474;-73
2022/05/22 11:19:08;;;;;;;11.77;3.20;;;25.10;99.90;;;;;;5068309;28;20201;-73
2022/05/22 11:21:40;;;;;;;5.67;2.60;;;25.50;99.90;;;;;;5068280;28;20480;-73
2022/05/22 11:24:17;;;;;;;6.17;2.70;;;25.40;99.90;;;;;;5051255;28;20452;-74
2022/05/22 11:26:58;;;;;;;10.82;3.25;;;25.40;99.90;;;;;;5050912;28;20448;-72
2022/05/22 11:29:40;;;;;;;6.35;2.92;;;25.00;99.90;;;;;;5047893;28;20452;-74
2022/05/22 11:32:20;;;;;;;6.63;2.57;;;24.70;99.90;;;;;;5057130;28;20221;-73
2022/05/22 11:35:23;;;;;;;8.83;2.90;;;24.80;99.90;;;;;;5063493;28;20544;-74
2022/05/22 11:38:02;;;;;;;9.00;3.23;;;25.00;99.90;;;;;;5051185;28;20452;-71
2022/05/22 11:40:38;;;;;;;6.03;2.70;;;25.10;99.90;;;;;;5050850;28;20475;-71
2022/05/22 11:43:19;;;;;;;7.57;3.13;;;25.10;99.90;;;;;;5051553;28;20468;-72
2022/05/22 11:45:56;;;;;;;6.00;3.20;;;25.30;99.90;;;;;;5055230;28;20482;-72
2022/05/22 11:48:50;;;;;;;5.93;2.90;;;25.40;99.90;;;;;;5054617;28;20506;-72
2022/05/22 11:51:44;;;;;;;5.97;3.00;;;25.50;99.90;;;;;;5046847;28;20832;-74
2022/05/22 11:54:35;;;;;;;10.77;3.60;;;24.90;99.90;;;;;;5056658;28;20202;-74
2022/05/22 11:57:15;;;;;;;5.53;2.80;;;24.30;99.90;;;;;;5057387;28;20460;-74
2022/05/22 12:00:11;;;;;;;7.20;3.27;;;24.00;99.90;;;;;;5051391;28;20459;-73
2022/05/22 12:02:50;;;;;;;8.20;3.43;;;24.00;99.90;;;;;;5058463;28;20474;-74
2022/05/22 12:05:32;;;;;;;5.27;2.70;;;24.40;99.90;;;;;;5046132;28;20659;-72
2022/05/22 12:08:14;;;;;;;8.80;2.50;;;24.60;99.90;;;;;;5045804;28;20440;-72
2022/05/22 12:10:46;;;;;;;5.67;3.10;;;24.80;99.90;;;;;;5050021;28;20261;-72
2022/05/22 12:13:18;;;;;;;5.23;2.67;;;25.10;99.90;;;;;;5062614;28;20526;-72
2022/05/22 12:15:50;;;;;;;6.30;2.57;;;25.20;99.90;;;;;;5058604;28;20496;-72
2022/05/22 12:18:39;;;;;;;6.07;3.20;;;25.10;99.90;;;;;;5060492;28;21020;-71
2022/05/22 12:21:14;;;;;;;7.93;2.80;;;24.80;99.90;;;;;;5050402;28;20952;-72
2022/05/22 12:23:52;;;;;;;10.40;3.13;;;25.00;99.90;;;;;;5049420;28;21012;-72
2022/05/22 12:26:21;;;;;;;6.87;2.77;;;25.20;99.90;;;;;;5059467;28;20510;-72
2022/05/22 12:28:50;;;;;;;5.93;2.47;;;25.10;99.90;;;;;;5050562;28;20460;-72
2022/05/22 12:31:22;;;;;;;4.70;2.20;;;24.90;99.90;;;;;;5042530;28;20499;-72
2022/05/22 12:33:50;;;;;;;4.40;2.67;;;24.80;99.90;;;;;;5037425;28;20457;-72
2022/05/22 12:36:24;;;;;;;3.70;2.50;;;25.00;99.90;;;;;;5038822;28;20485;-73
2022/05/22 12:38:57;;;;;;;7.57;2.93;;;25.10;99.90;;;;;;5033279;28;20984;-72
2022/05/22 12:41:35;;;;;;;7.90;2.80;;;24.80;99.90;;;;;;5033414;28;20450;-73
2022/05/22 12:44:04;;;;;;;7.63;3.00;;;24.80;99.90;;;;;;5031376;28;20453;-71
2022/05/22 12:46:31;;;;;;;5.73;2.73;;;24.60;99.90;;;;;;5033199;28;20446;-73
2022/05/22 12:49:10;;;;;;;5.10;2.47;;;24.50;99.90;;;;;;5040869;28;20456;-73
2022/05/22 12:51:42;;;;;;;5.60;2.70;;;24.30;99.90;;;;;;5035624;28;20442;-71
2022/05/22 12:54:20;;;;;;;9.10;2.63;;;24.10;99.90;;;;;;5036600;28;20471;-72
2022/05/22 12:56:47;;;;;;;7.70;3.10;;;24.00;99.90;;;;;;5041253;28;21070;-71
2022/05/22 12:59:21;;;;;;;4.40;2.70;;;24.30;99.90;;;;;;5032950;28;20946;-72
2022/05/22 13:01:49;;;;;;;7.20;2.57;;;24.80;99.90;;;;;;5032943;28;20465;-72
2022/05/22 13:04:28;;;;;;;4.43;2.40;;;25.00;99.90;;;;;;5032451;28;20458;-72
2022/05/22 13:07:00;;;;;;;8.50;3.13;;;25.00;99.90;;;;;;5032546;28;20453;-72
2022/05/22 13:09:37;;;;;;;5.50;3.07;;;25.20;99.90;;;;;;5035777;28;20465;-72
2022/05/22 13:12:10;;;;;;;4.97;2.60;;;25.00;99.90;;;;;;5034278;28;20512;-75
2022/05/22 13:14:43;;;;;;;4.80;2.43;;;25.10;99.90;;;;;;5034574;28;20203;-75
2022/05/22 13:17:10;;;;;;;4.63;2.60;;;25.10;99.90;;;;;;5047255;28;20528;-75